sensor_id;sensor_type;location;lat;lon;timestamp;temperature;humidity
3005;DHT22;1512;51.486;6.610;2024-02-26T00:02:26;6.90;1.00
3005;DHT22;1512;51.486;6.610;2024-02-26T00:06:35;6.90;1.00
3005;DHT22;1512;51.486;6.610;2024-02-26T00:10:44;6.80;1.00
3005;DHT22;1512;51.486;6.610;2024-02-26T00:14:53;6.80;1.00
3005;DHT22;1512;51.486;6.610;2024-02-26T00:19:02;6.70;1.00
3005;DHT22;1512;51.486;6.610;2024-02-26T00:23:11;6.70;1.00
3005;DHT22;1512;51.486;6.610;2024-02-26T00:27:19;6.70;1.00
3005;DHT22;1512;51.486;6.610;2024-02-26T00:31:28;6.60;1.00
3005;DHT22;1512;51.486;6.610;2024-02-26T00:35:37;6.60;1.00
3005;DHT22;1512;51.486;6.610;2024-02-26T00:39:45;6.60;1.00
3005;DHT22;1512;51.486;6.610;2024-02-26T00:43:54;6.60;1.00
3005;DHT22;1512;51.486;6.610;2024-02-26T00:48:03;6.50;1.00
3005;DHT22;1512;51.486;6.610;2024-02-26T00:52:13;6.60;1.00
3005;DHT22;1512;51.486;6.610;2024-02-26T00:56:22;6.60;1.00
3005;DHT22;1512;51.486;6.610;2024-02-26T01:00:30;6.60;1.00
3005;DHT22;1512;51.486;6.610;2024-02-26T01:04:39;6.60;1.00
3005;DHT22;1512;51.486;6.610;2024-02-26T01:08:48;6.60;1.00
3005;DHT22;1512;51.486;6.610;2024-02-26T01:12:56;6.60;1.00
3005;DHT22;1512;51.486;6.610;2024-02-26T01:17:05;6.60;1.00
3005;DHT22;1512;51.486;6.610;2024-02-26T01:21:14;6.60;1.00
3005;DHT22;1512;51.486;6.610;2024-02-26T01:25:22;6.60;1.00
3005;DHT22;1512;51.486;6.610;2024-02-26T01:29:31;6.60;1.00
3005;DHT22;1512;51.486;6.610;2024-02-26T01:33:40;6.60;1.00
3005;DHT22;1512;51.486;6.610;2024-02-26T01:37:49;6.70;1.00
3005;DHT22;1512;51.486;6.610;2024-02-26T01:41:57;6.60;1.00
3005;DHT22;1512;51.486;6.610;2024-02-26T01:46:07;6.60;1.00
3005;DHT22;1512;51.486;6.610;2024-02-26T01:50:17;6.60;1.00
3005;DHT22;1512;51.486;6.610;2024-02-26T01:54:26;6.60;1.00
3005;DHT22;1512;51.486;6.610;2024-02-26T01:58:36;6.60;1.00
3005;DHT22;1512;51.486;6.610;2024-02-26T02:02:45;6.60;1.00
3005;DHT22;1512;51.486;6.610;2024-02-26T02:06:56;6.60;1.00
3005;DHT22;1512;51.486;6.610;2024-02-26T02:11:06;6.60;1.00
3005;DHT22;1512;51.486;6.610;2024-02-26T02:15:15;6.70;1.00
3005;DHT22;1512;51.486;6.610;2024-02-26T02:19:24;6.60;1.00
3005;DHT22;1512;51.486;6.610;2024-02-26T02:23:32;6.60;1.00
3005;DHT22;1512;51.486;6.610;2024-02-26T02:27:42;6.60;1.00
3005;DHT22;1512;51.486;6.610;2024-02-26T02:31:51;6.60;1.00
3005;DHT22;1512;51.486;6.610;2024-02-26T02:35:59;6.60;1.00
3005;DHT22;1512;51.486;6.610;2024-02-26T02:40:08;6.50;1.00
3005;DHT22;1512;51.486;6.610;2024-02-26T02:44:17;6.50;1.00
3005;DHT22;1512;51.486;6.610;2024-02-26T02:48:25;6.50;1.00
3005;DHT22;1512;51.486;6.610;2024-02-26T02:52:34;6.50;1.00
3005;DHT22;1512;51.486;6.610;2024-02-26T02:56:43;6.50;1.00
3005;DHT22;1512;51.486;6.610;2024-02-26T03:00:51;6.40;1.00
3005;DHT22;1512;51.486;6.610;2024-02-26T03:05:03;6.40;1.00
3005;DHT22;1512;51.486;6.610;2024-02-26T03:09:11;6.40;1.00
3005;DHT22;1512;51.486;6.610;2024-02-26T03:13:20;6.40;1.00
3005;DHT22;1512;51.486;6.610;2024-02-26T03:17:29;6.30;1.00
3005;DHT22;1512;51.486;6.610;2024-02-26T03:21:38;6.30;1.00
3005;DHT22;1512;51.486;6.610;2024-02-26T03:25:46;6.30;1.00
3005;DHT22;1512;51.486;6.610;2024-02-26T03:29:55;6.30;1.00
3005;DHT22;1512;51.486;6.610;2024-02-26T03:34:04;6.30;1.00
3005;DHT22;1512;51.486;6.610;2024-02-26T03:38:13;6.30;1.00
3005;DHT22;1512;51.486;6.610;2024-02-26T03:42:22;6.20;1.00
3005;DHT22;1512;51.486;6.610;2024-02-26T03:46:30;6.10;1.00
3005;DHT22;1512;51.486;6.610;2024-02-26T03:50:39;6.10;1.00
3005;DHT22;1512;51.486;6.610;2024-02-26T03:54:48;6.00;1.00
3005;DHT22;1512;51.486;6.610;2024-02-26T03:58:56;6.00;1.00
3005;DHT22;1512;51.486;6.610;2024-02-26T04:03:07;5.90;1.00
3005;DHT22;1512;51.486;6.610;2024-02-26T04:07:15;5.90;1.00
3005;DHT22;1512;51.486;6.610;2024-02-26T04:11:24;5.90;1.00
3005;DHT22;1512;51.486;6.610;2024-02-26T04:15:33;5.90;1.00
3005;DHT22;1512;51.486;6.610;2024-02-26T04:19:41;5.90;1.00
3005;DHT22;1512;51.486;6.610;2024-02-26T04:23:50;5.80;1.00
3005;DHT22;1512;51.486;6.610;2024-02-26T04:28:01;5.80;1.00
3005;DHT22;1512;51.486;6.610;2024-02-26T04:32:10;5.80;1.00
3005;DHT22;1512;51.486;6.610;2024-02-26T04:36:18;5.80;1.00
3005;DHT22;1512;51.486;6.610;2024-02-26T04:40:27;5.80;1.00
3005;DHT22;1512;51.486;6.610;2024-02-26T04:44:35;5.70;1.00
3005;DHT22;1512;51.486;6.610;2024-02-26T04:48:45;5.70;1.00
3005;DHT22;1512;51.486;6.610;2024-02-26T04:52:54;5.70;1.00
3005;DHT22;1512;51.486;6.610;2024-02-26T04:57:03;5.60;1.00
3005;DHT22;1512;51.486;6.610;2024-02-26T05:01:12;5.60;1.00
3005;DHT22;1512;51.486;6.610;2024-02-26T05:05:21;5.60;1.00
3005;DHT22;1512;51.486;6.610;2024-02-26T05:09:29;5.60;22.40
3005;DHT22;1512;51.486;6.610;2024-02-26T05:13:38;5.50;59.60
3005;DHT22;1512;51.486;6.610;2024-02-26T05:17:47;5.50;99.90
3005;DHT22;1512;51.486;6.610;2024-02-26T05:21:55;5.50;99.90
3005;DHT22;1512;51.486;6.610;2024-02-26T05:26:04;5.50;99.90
3005;DHT22;1512;51.486;6.610;2024-02-26T05:30:13;5.50;1.00
3005;DHT22;1512;51.486;6.610;2024-02-26T05:34:21;5.50;1.00
3005;DHT22;1512;51.486;6.610;2024-02-26T05:38:30;5.40;1.00
3005;DHT22;1512;51.486;6.610;2024-02-26T05:42:39;5.40;1.00
3005;DHT22;1512;51.486;6.610;2024-02-26T05:46:48;5.40;99.90
3005;DHT22;1512;51.486;6.610;2024-02-26T05:50:56;5.30;1.00
3005;DHT22;1512;51.486;6.610;2024-02-26T05:55:05;5.30;1.00
3005;DHT22;1512;51.486;6.610;2024-02-26T05:59:14;5.30;99.90
3005;DHT22;1512;51.486;6.610;2024-02-26T06:03:23;5.30;1.00
3005;DHT22;1512;51.486;6.610;2024-02-26T06:07:32;5.30;1.00
3005;DHT22;1512;51.486;6.610;2024-02-26T06:11:40;5.30;1.00
3005;DHT22;1512;51.486;6.610;2024-02-26T06:15:49;5.30;99.90
3005;DHT22;1512;51.486;6.610;2024-02-26T06:19:58;5.30;1.00
3005;DHT22;1512;51.486;6.610;2024-02-26T06:24:07;5.30;1.00
3005;DHT22;1512;51.486;6.610;2024-02-26T06:28:16;5.30;99.90
3005;DHT22;1512;51.486;6.610;2024-02-26T06:32:24;5.30;1.00
3005;DHT22;1512;51.486;6.610;2024-02-26T06:36:35;5.30;1.00
3005;DHT22;1512;51.486;6.610;2024-02-26T06:40:44;5.30;66.10
3005;DHT22;1512;51.486;6.610;2024-02-26T06:44:53;5.30;1.00
3005;DHT22;1512;51.486;6.610;2024-02-26T06:49:01;5.30;99.90
3005;DHT22;1512;51.486;6.610;2024-02-26T06:53:10;5.30;1.00
3005;DHT22;1512;51.486;6.610;2024-02-26T06:57:20;5.30;99.90
3005;DHT22;1512;51.486;6.610;2024-02-26T07:01:29;5.30;1.00
3005;DHT22;1512;51.486;6.610;2024-02-26T07:05:38;5.40;99.90
3005;DHT22;1512;51.486;6.610;2024-02-26T07:09:47;5.40;1.00
3005;DHT22;1512;51.486;6.610;2024-02-26T07:13:56;5.40;1.00
3005;DHT22;1512;51.486;6.610;2024-02-26T07:18:05;5.40;1.00
3005;DHT22;1512;51.486;6.610;2024-02-26T07:22:14;5.40;1.00
3005;DHT22;1512;51.486;6.610;2024-02-26T07:26:22;5.40;1.00
3005;DHT22;1512;51.486;6.610;2024-02-26T07:30:32;5.50;1.00
3005;DHT22;1512;51.486;6.610;2024-02-26T07:34:41;5.50;1.00
3005;DHT22;1512;51.486;6.610;2024-02-26T07:38:52;5.50;99.90
3005;DHT22;1512;51.486;6.610;2024-02-26T07:43:02;5.40;1.00
3005;DHT22;1512;51.486;6.610;2024-02-26T07:47:10;5.50;99.90
3005;DHT22;1512;51.486;6.610;2024-02-26T07:51:19;5.50;99.90
3005;DHT22;1512;51.486;6.610;2024-02-26T07:55:27;5.50;99.90
3005;DHT22;1512;51.486;6.610;2024-02-26T07:59:36;5.50;50.90
3005;DHT22;1512;51.486;6.610;2024-02-26T08:03:45;5.50;1.00
3005;DHT22;1512;51.486;6.610;2024-02-26T08:07:53;5.50;1.00
3005;DHT22;1512;51.486;6.610;2024-02-26T08:12:02;5.40;1.00
3005;DHT22;1512;51.486;6.610;2024-02-26T08:16:11;5.50;1.00
3005;DHT22;1512;51.486;6.610;2024-02-26T08:20:20;5.50;36.70
3005;DHT22;1512;51.486;6.610;2024-02-26T08:24:28;5.50;1.00
3005;DHT22;1512;51.486;6.610;2024-02-26T08:28:37;5.50;1.00
3005;DHT22;1512;51.486;6.610;2024-02-26T08:32:47;5.50;1.00
3005;DHT22;1512;51.486;6.610;2024-02-26T08:36:57;5.50;1.00
3005;DHT22;1512;51.486;6.610;2024-02-26T08:41:06;5.50;1.00
3005;DHT22;1512;51.486;6.610;2024-02-26T08:45:14;5.50;1.00
3005;DHT22;1512;51.486;6.610;2024-02-26T08:49:23;5.50;99.90
3005;DHT22;1512;51.486;6.610;2024-02-26T08:53:32;5.50;99.90
3005;DHT22;1512;51.486;6.610;2024-02-26T08:57:42;5.60;1.00
3005;DHT22;1512;51.486;6.610;2024-02-26T09:01:51;5.60;1.00
3005;DHT22;1512;51.486;6.610;2024-02-26T09:05:59;5.60;1.00
3005;DHT22;1512;51.486;6.610;2024-02-26T09:10:08;5.50;4.00
3005;DHT22;1512;51.486;6.610;2024-02-26T09:14:18;5.60;99.90
3005;DHT22;1512;51.486;6.610;2024-02-26T09:18:27;5.60;99.90
3005;DHT22;1512;51.486;6.610;2024-02-26T09:22:36;5.70;48.10
3005;DHT22;1512;51.486;6.610;2024-02-26T09:26:45;5.70;99.90
3005;DHT22;1512;51.486;6.610;2024-02-26T09:30:54;5.70;82.90
3005;DHT22;1512;51.486;6.610;2024-02-26T09:35:02;5.70;1.00
3005;DHT22;1512;51.486;6.610;2024-02-26T09:39:11;5.60;1.00
3005;DHT22;1512;51.486;6.610;2024-02-26T09:43:23;5.60;99.90
3005;DHT22;1512;51.486;6.610;2024-02-26T09:47:33;5.60;99.90
3005;DHT22;1512;51.486;6.610;2024-02-26T09:51:43;5.60;99.90
3005;DHT22;1512;51.486;6.610;2024-02-26T09:55:52;5.70;99.90
3005;DHT22;1512;51.486;6.610;2024-02-26T10:00:03;5.70;99.90
3005;DHT22;1512;51.486;6.610;2024-02-26T10:04:13;5.70;1.00
3005;DHT22;1512;51.486;6.610;2024-02-26T10:08:23;5.70;99.90
3005;DHT22;1512;51.486;6.610;2024-02-26T10:12:32;5.70;1.00
3005;DHT22;1512;51.486;6.610;2024-02-26T10:16:41;5.70;1.00
3005;DHT22;1512;51.486;6.610;2024-02-26T10:21:00;5.70;1.00
3005;DHT22;1512;51.486;6.610;2024-02-26T10:25:09;5.70;1.00
3005;DHT22;1512;51.486;6.610;2024-02-26T10:29:19;5.80;99.90
3005;DHT22;1512;51.486;6.610;2024-02-26T10:33:28;5.80;99.90
3005;DHT22;1512;51.486;6.610;2024-02-26T10:37:40;5.80;99.90
3005;DHT22;1512;51.486;6.610;2024-02-26T10:41:49;5.80;1.00
3005;DHT22;1512;51.486;6.610;2024-02-26T10:45:58;5.90;1.00
3005;DHT22;1512;51.486;6.610;2024-02-26T10:50:07;5.90;99.90
3005;DHT22;1512;51.486;6.610;2024-02-26T10:54:17;5.90;1.00
3005;DHT22;1512;51.486;6.610;2024-02-26T10:58:27;6.00;45.40
3005;DHT22;1512;51.486;6.610;2024-02-26T11:02:37;6.00;63.30
3005;DHT22;1512;51.486;6.610;2024-02-26T11:06:46;6.00;1.00
3005;DHT22;1512;51.486;6.610;2024-02-26T11:10:56;6.00;22.70
3005;DHT22;1512;51.486;6.610;2024-02-26T11:15:06;6.10;99.90
3005;DHT22;1512;51.486;6.610;2024-02-26T11:19:16;6.20;99.90
3005;DHT22;1512;51.486;6.610;2024-02-26T11:23:25;6.30;1.00
3005;DHT22;1512;51.486;6.610;2024-02-26T11:27:38;6.40;1.00
3005;DHT22;1512;51.486;6.610;2024-02-26T11:31:46;6.50;1.00
3005;DHT22;1512;51.486;6.610;2024-02-26T11:35:55;6.50;1.00
3005;DHT22;1512;51.486;6.610;2024-02-26T11:40:04;6.50;10.80
3005;DHT22;1512;51.486;6.610;2024-02-26T11:44:14;6.50;1.00
3005;DHT22;1512;51.486;6.610;2024-02-26T11:48:25;6.50;1.00
3005;DHT22;1512;51.486;6.610;2024-02-26T11:52:35;6.50;99.90
3005;DHT22;1512;51.486;6.610;2024-02-26T11:56:45;6.60;1.00
3005;DHT22;1512;51.486;6.610;2024-02-26T12:00:57;6.60;1.00
3005;DHT22;1512;51.486;6.610;2024-02-26T12:05:14;6.50;99.90
3005;DHT22;1512;51.486;6.610;2024-02-26T12:09:38;6.50;99.90
3005;DHT22;1512;51.486;6.610;2024-02-26T12:13:49;6.40;99.90
3005;DHT22;1512;51.486;6.610;2024-02-26T12:18:04;6.50;1.00
3005;DHT22;1512;51.486;6.610;2024-02-26T12:22:12;6.60;99.90
3005;DHT22;1512;51.486;6.610;2024-02-26T12:26:21;6.60;99.90
3005;DHT22;1512;51.486;6.610;2024-02-26T12:30:31;6.70;99.90
3005;DHT22;1512;51.486;6.610;2024-02-26T12:34:40;6.70;99.10
3005;DHT22;1512;51.486;6.610;2024-02-26T12:38:51;6.70;99.90
3005;DHT22;1512;51.486;6.610;2024-02-26T12:43:00;6.70;43.00
3005;DHT22;1512;51.486;6.610;2024-02-26T12:47:10;6.70;1.00
3005;DHT22;1512;51.486;6.610;2024-02-26T12:51:20;6.70;12.80
3005;DHT22;1512;51.486;6.610;2024-02-26T12:55:30;6.70;1.00
3005;DHT22;1512;51.486;6.610;2024-02-26T12:59:40;6.70;1.00
3005;DHT22;1512;51.486;6.610;2024-02-26T13:03:50;6.80;1.00
3005;DHT22;1512;51.486;6.610;2024-02-26T13:07:59;6.80;1.00
3005;DHT22;1512;51.486;6.610;2024-02-26T13:12:08;6.80;1.00
3005;DHT22;1512;51.486;6.610;2024-02-26T13:16:17;6.80;1.00
3005;DHT22;1512;51.486;6.610;2024-02-26T13:20:27;6.80;1.00
3005;DHT22;1512;51.486;6.610;2024-02-26T13:24:37;6.80;1.00
3005;DHT22;1512;51.486;6.610;2024-02-26T13:28:45;6.80;1.00
3005;DHT22;1512;51.486;6.610;2024-02-26T13:32:56;6.80;1.00
3005;DHT22;1512;51.486;6.610;2024-02-26T13:37:04;6.80;1.00
3005;DHT22;1512;51.486;6.610;2024-02-26T13:41:13;6.80;1.00
3005;DHT22;1512;51.486;6.610;2024-02-26T13:45:22;6.90;1.00
3005;DHT22;1512;51.486;6.610;2024-02-26T13:49:30;6.90;1.00
3005;DHT22;1512;51.486;6.610;2024-02-26T13:53:39;6.90;1.00
3005;DHT22;1512;51.486;6.610;2024-02-26T13:57:48;7.00;1.00
3005;DHT22;1512;51.486;6.610;2024-02-26T14:01:58;7.00;1.00
3005;DHT22;1512;51.486;6.610;2024-02-26T14:06:07;7.00;1.00
3005;DHT22;1512;51.486;6.610;2024-02-26T14:10:16;7.00;1.00
3005;DHT22;1512;51.486;6.610;2024-02-26T14:14:24;7.00;1.00
3005;DHT22;1512;51.486;6.610;2024-02-26T14:18:33;7.00;1.00
3005;DHT22;1512;51.486;6.610;2024-02-26T14:22:42;7.00;1.00
3005;DHT22;1512;51.486;6.610;2024-02-26T14:26:50;7.00;1.00
3005;DHT22;1512;51.486;6.610;2024-02-26T14:30:59;7.00;1.00
3005;DHT22;1512;51.486;6.610;2024-02-26T14:35:08;7.00;1.00
3005;DHT22;1512;51.486;6.610;2024-02-26T14:39:19;7.00;1.00
3005;DHT22;1512;51.486;6.610;2024-02-26T14:43:28;7.00;1.00
3005;DHT22;1512;51.486;6.610;2024-02-26T14:47:37;6.90;1.00
3005;DHT22;1512;51.486;6.610;2024-02-26T14:51:47;6.90;1.00
3005;DHT22;1512;51.486;6.610;2024-02-26T14:55:56;6.80;1.00
3005;DHT22;1512;51.486;6.610;2024-02-26T15:00:05;6.80;1.00
3005;DHT22;1512;51.486;6.610;2024-02-26T15:04:14;6.80;1.00
3005;DHT22;1512;51.486;6.610;2024-02-26T15:08:23;6.80;1.00
3005;DHT22;1512;51.486;6.610;2024-02-26T15:12:32;6.80;1.00
3005;DHT22;1512;51.486;6.610;2024-02-26T15:16:41;6.80;1.00
3005;DHT22;1512;51.486;6.610;2024-02-26T15:20:50;6.80;1.00
3005;DHT22;1512;51.486;6.610;2024-02-26T15:24:59;6.80;1.00
3005;DHT22;1512;51.486;6.610;2024-02-26T15:29:07;6.80;1.00
3005;DHT22;1512;51.486;6.610;2024-02-26T15:33:18;6.80;1.00
3005;DHT22;1512;51.486;6.610;2024-02-26T15:37:27;6.70;1.00
3005;DHT22;1512;51.486;6.610;2024-02-26T15:41:36;6.70;1.00
3005;DHT22;1512;51.486;6.610;2024-02-26T15:45:45;6.70;1.00
3005;DHT22;1512;51.486;6.610;2024-02-26T15:49:54;6.60;1.00
3005;DHT22;1512;51.486;6.610;2024-02-26T15:54:03;6.60;1.00
3005;DHT22;1512;51.486;6.610;2024-02-26T15:58:11;6.60;1.00
3005;DHT22;1512;51.486;6.610;2024-02-26T16:02:20;6.60;1.00
3005;DHT22;1512;51.486;6.610;2024-02-26T16:06:41;6.50;1.00
3005;DHT22;1512;51.486;6.610;2024-02-26T16:10:50;6.50;1.00
3005;DHT22;1512;51.486;6.610;2024-02-26T16:14:59;6.50;1.00
3005;DHT22;1512;51.486;6.610;2024-02-26T16:19:10;6.50;1.00
3005;DHT22;1512;51.486;6.610;2024-02-26T16:23:21;6.50;7.50
3005;DHT22;1512;51.486;6.610;2024-02-26T16:27:30;6.40;33.80
3005;DHT22;1512;51.486;6.610;2024-02-26T16:31:39;6.40;99.90
3005;DHT22;1512;51.486;6.610;2024-02-26T16:35:47;6.40;99.90
3005;DHT22;1512;51.486;6.610;2024-02-26T16:39:58;6.40;99.90
3005;DHT22;1512;51.486;6.610;2024-02-26T16:44:07;6.40;99.90
3005;DHT22;1512;51.486;6.610;2024-02-26T16:48:16;6.40;93.10
3005;DHT22;1512;51.486;6.610;2024-02-26T16:52:25;6.40;48.50
3005;DHT22;1512;51.486;6.610;2024-02-26T16:56:33;6.40;66.80
3005;DHT22;1512;51.486;6.610;2024-02-26T17:00:42;6.40;44.90
3005;DHT22;1512;51.486;6.610;2024-02-26T17:04:52;6.40;39.30
3005;DHT22;1512;51.486;6.610;2024-02-26T17:09:00;6.50;99.90
3005;DHT22;1512;51.486;6.610;2024-02-26T17:13:11;6.40;99.90
3005;DHT22;1512;51.486;6.610;2024-02-26T17:17:20;6.40;99.90
3005;DHT22;1512;51.486;6.610;2024-02-26T17:21:28;6.40;99.90
3005;DHT22;1512;51.486;6.610;2024-02-26T17:25:37;6.40;77.10
3005;DHT22;1512;51.486;6.610;2024-02-26T17:29:46;6.40;96.90
3005;DHT22;1512;51.486;6.610;2024-02-26T17:33:55;6.40;99.90
3005;DHT22;1512;51.486;6.610;2024-02-26T17:38:04;6.40;99.90
3005;DHT22;1512;51.486;6.610;2024-02-26T17:42:13;6.40;24.80
3005;DHT22;1512;51.486;6.610;2024-02-26T17:46:23;6.40;84.50
3005;DHT22;1512;51.486;6.610;2024-02-26T17:50:32;6.40;99.90
3005;DHT22;1512;51.486;6.610;2024-02-26T17:54:40;6.30;99.90
3005;DHT22;1512;51.486;6.610;2024-02-26T17:58:49;6.40;99.90
3005;DHT22;1512;51.486;6.610;2024-02-26T18:02:58;6.40;99.90
3005;DHT22;1512;51.486;6.610;2024-02-26T18:07:06;6.40;99.90
3005;DHT22;1512;51.486;6.610;2024-02-26T18:11:16;6.40;99.90
3005;DHT22;1512;51.486;6.610;2024-02-26T18:15:25;6.40;99.90
3005;DHT22;1512;51.486;6.610;2024-02-26T18:19:35;6.40;68.00
3005;DHT22;1512;51.486;6.610;2024-02-26T18:23:45;6.40;67.10
3005;DHT22;1512;51.486;6.610;2024-02-26T18:27:53;6.40;99.90
3005;DHT22;1512;51.486;6.610;2024-02-26T18:32:02;6.30;99.90
3005;DHT22;1512;51.486;6.610;2024-02-26T18:36:11;6.30;99.90
3005;DHT22;1512;51.486;6.610;2024-02-26T18:40:19;6.30;99.90
3005;DHT22;1512;51.486;6.610;2024-02-26T18:44:28;6.30;99.90
3005;DHT22;1512;51.486;6.610;2024-02-26T18:48:38;6.30;99.90
3005;DHT22;1512;51.486;6.610;2024-02-26T18:52:47;6.30;99.90
3005;DHT22;1512;51.486;6.610;2024-02-26T18:56:55;6.20;99.90
3005;DHT22;1512;51.486;6.610;2024-02-26T19:01:04;6.20;99.90
3005;DHT22;1512;51.486;6.610;2024-02-26T19:05:13;6.30;99.90
3005;DHT22;1512;51.486;6.610;2024-02-26T19:09:22;6.30;75.00
3005;DHT22;1512;51.486;6.610;2024-02-26T19:13:30;6.30;99.90
3005;DHT22;1512;51.486;6.610;2024-02-26T19:17:39;6.20;99.90
3005;DHT22;1512;51.486;6.610;2024-02-26T19:21:51;6.20;99.90
3005;DHT22;1512;51.486;6.610;2024-02-26T19:26:00;6.20;99.90
3005;DHT22;1512;51.486;6.610;2024-02-26T19:30:10;6.20;99.90
3005;DHT22;1512;51.486;6.610;2024-02-26T19:34:19;6.20;99.90
3005;DHT22;1512;51.486;6.610;2024-02-26T19:38:28;6.20;99.90
3005;DHT22;1512;51.486;6.610;2024-02-26T19:42:36;6.20;99.90
3005;DHT22;1512;51.486;6.610;2024-02-26T19:46:45;6.20;99.90
3005;DHT22;1512;51.486;6.610;2024-02-26T19:50:54;6.20;99.90
3005;DHT22;1512;51.486;6.610;2024-02-26T19:55:03;6.20;99.90
3005;DHT22;1512;51.486;6.610;2024-02-26T19:59:13;6.20;99.90
3005;DHT22;1512;51.486;6.610;2024-02-26T20:03:21;6.20;37.20
3005;DHT22;1512;51.486;6.610;2024-02-26T20:07:30;6.20;74.70
3005;DHT22;1512;51.486;6.610;2024-02-26T20:11:39;6.20;22.00
3005;DHT22;1512;51.486;6.610;2024-02-26T20:15:49;6.20;35.00
3005;DHT22;1512;51.486;6.610;2024-02-26T20:19:58;6.20;49.30
3005;DHT22;1512;51.486;6.610;2024-02-26T20:24:07;6.20;10.80
3005;DHT22;1512;51.486;6.610;2024-02-26T20:28:16;6.10;1.00
3005;DHT22;1512;51.486;6.610;2024-02-26T20:32:24;6.10;33.60
3005;DHT22;1512;51.486;6.610;2024-02-26T20:36:35;6.10;9.40
3005;DHT22;1512;51.486;6.610;2024-02-26T20:40:44;6.10;28.00
3005;DHT22;1512;51.486;6.610;2024-02-26T20:44:53;6.10;99.90
3005;DHT22;1512;51.486;6.610;2024-02-26T20:49:02;6.00;99.90
3005;DHT22;1512;51.486;6.610;2024-02-26T20:53:12;6.00;56.70
3005;DHT22;1512;51.486;6.610;2024-02-26T20:57:22;6.00;99.90
3005;DHT22;1512;51.486;6.610;2024-02-26T21:01:31;6.10;47.40
3005;DHT22;1512;51.486;6.610;2024-02-26T21:05:39;6.00;44.20
3005;DHT22;1512;51.486;6.610;2024-02-26T21:09:49;6.00;99.90
3005;DHT22;1512;51.486;6.610;2024-02-26T21:13:59;6.00;99.90
3005;DHT22;1512;51.486;6.610;2024-02-26T21:18:08;6.00;99.90
3005;DHT22;1512;51.486;6.610;2024-02-26T21:22:17;6.00;99.90
3005;DHT22;1512;51.486;6.610;2024-02-26T21:26:25;6.00;99.90
3005;DHT22;1512;51.486;6.610;2024-02-26T21:30:35;5.90;99.90
3005;DHT22;1512;51.486;6.610;2024-02-26T21:34:44;5.90;99.90
3005;DHT22;1512;51.486;6.610;2024-02-26T21:38:53;5.90;99.90
3005;DHT22;1512;51.486;6.610;2024-02-26T21:43:02;5.90;99.90
3005;DHT22;1512;51.486;6.610;2024-02-26T21:47:11;5.90;99.90
3005;DHT22;1512;51.486;6.610;2024-02-26T21:51:20;5.90;99.90
3005;DHT22;1512;51.486;6.610;2024-02-26T21:55:28;5.80;99.90
3005;DHT22;1512;51.486;6.610;2024-02-26T21:59:37;5.80;99.90
3005;DHT22;1512;51.486;6.610;2024-02-26T22:03:45;5.80;99.90
3005;DHT22;1512;51.486;6.610;2024-02-26T22:07:54;5.80;99.90
3005;DHT22;1512;51.486;6.610;2024-02-26T22:12:03;5.80;99.90
3005;DHT22;1512;51.486;6.610;2024-02-26T22:16:12;5.80;99.90
3005;DHT22;1512;51.486;6.610;2024-02-26T22:20:20;5.80;99.90
3005;DHT22;1512;51.486;6.610;2024-02-26T22:24:29;5.80;99.90
3005;DHT22;1512;51.486;6.610;2024-02-26T22:28:38;5.80;99.90
3005;DHT22;1512;51.486;6.610;2024-02-26T22:32:46;5.80;99.90
3005;DHT22;1512;51.486;6.610;2024-02-26T22:36:55;5.80;63.10
3005;DHT22;1512;51.486;6.610;2024-02-26T22:41:04;5.70;99.90
3005;DHT22;1512;51.486;6.610;2024-02-26T22:45:15;5.70;99.90
3005;DHT22;1512;51.486;6.610;2024-02-26T22:49:24;5.70;71.60
3005;DHT22;1512;51.486;6.610;2024-02-26T22:53:33;5.70;85.70
3005;DHT22;1512;51.486;6.610;2024-02-26T22:57:42;5.70;40.20
3005;DHT22;1512;51.486;6.610;2024-02-26T23:01:51;5.70;4.30
3005;DHT22;1512;51.486;6.610;2024-02-26T23:05:59;5.70;1.00
3005;DHT22;1512;51.486;6.610;2024-02-26T23:10:08;5.70;1.00
3005;DHT22;1512;51.486;6.610;2024-02-26T23:14:17;5.70;3.70
3005;DHT22;1512;51.486;6.610;2024-02-26T23:18:25;5.70;1.00
3005;DHT22;1512;51.486;6.610;2024-02-26T23:22:42;5.60;1.00
3005;DHT22;1512;51.486;6.610;2024-02-26T23:26:51;5.70;1.00
3005;DHT22;1512;51.486;6.610;2024-02-26T23:31:00;5.70;1.00
3005;DHT22;1512;51.486;6.610;2024-02-26T23:35:09;5.70;1.00
3005;DHT22;1512;51.486;6.610;2024-02-26T23:39:18;5.70;1.00
3005;DHT22;1512;51.486;6.610;2024-02-26T23:43:27;5.70;1.00
3005;DHT22;1512;51.486;6.610;2024-02-26T23:47:36;5.70;1.00
3005;DHT22;1512;51.486;6.610;2024-02-26T23:51:44;5.70;1.00
3005;DHT22;1512;51.486;6.610;2024-02-26T23:55:55;5.70;1.00
